sensor_id;sensor_type;location;lat;lon;timestamp;pressure;altitude;pressure_sealevel;temperature;humidity
9421;BME280;4749;51.398;5.466;2022-07-29T00:01:01;101435.06;;;19.12;100.00
9421;BME280;4749;51.398;5.466;2022-07-29T00:03:28;101424.41;;;19.12;100.00
9421;BME280;4749;51.398;5.466;2022-07-29T00:05:56;101430.63;;;19.12;100.00
9421;BME280;4749;51.398;5.466;2022-07-29T00:08:23;101430.53;;;19.16;100.00
9421;BME280;4749;51.398;5.466;2022-07-29T00:10:51;101427.16;;;19.07;100.00
9421;BME280;4749;51.398;5.466;2022-07-29T00:13:18;101441.31;;;19.11;100.00
9421;BME280;4749;51.398;5.466;2022-07-29T00:15:58;101434.16;;;19.13;100.00
9421;BME280;4749;51.398;5.466;2022-07-29T00:18:31;101451.03;;;19.13;100.00
9421;BME280;4749;51.398;5.466;2022-07-29T00:20:58;101459.84;;;19.17;100.00
9421;BME280;4749;51.398;5.466;2022-07-29T00:23:26;101469.84;;;19.06;100.00
9421;BME280;4749;51.398;5.466;2022-07-29T00:25:53;101485.75;;;19.10;100.00
9421;BME280;4749;51.398;5.466;2022-07-29T00:28:20;101503.63;;;19.05;100.00
9421;BME280;4749;51.398;5.466;2022-07-29T00:30:47;101510.03;;;18.97;100.00
9421;BME280;4749;51.398;5.466;2022-07-29T00:33:14;101530.94;;;18.73;100.00
9421;BME280;4749;51.398;5.466;2022-07-29T00:35:41;101532.63;;;18.77;100.00
9421;BME280;4749;51.398;5.466;2022-07-29T00:38:13;101522.22;;;18.65;100.00
9421;BME280;4749;51.398;5.466;2022-07-29T00:40:41;101521.91;;;18.34;100.00
9421;BME280;4749;51.398;5.466;2022-07-29T00:43:10;101535.53;;;18.17;100.00
9421;BME280;4749;51.398;5.466;2022-07-29T00:45:38;101530.97;;;17.71;100.00
9421;BME280;4749;51.398;5.466;2022-07-29T00:48:05;101518.16;;;17.38;100.00
9421;BME280;4749;51.398;5.466;2022-07-29T00:50:33;101501.94;;;17.55;100.00
9421;BME280;4749;51.398;5.466;2022-07-29T00:53:01;101486.16;;;17.45;100.00
9421;BME280;4749;51.398;5.466;2022-07-29T00:55:29;101472.06;;;17.40;100.00
9421;BME280;4749;51.398;5.466;2022-07-29T00:57:57;101459.63;;;17.42;100.00
9421;BME280;4749;51.398;5.466;2022-07-29T01:00:27;101460.78;;;17.25;100.00
9421;BME280;4749;51.398;5.466;2022-07-29T01:02:54;101447.03;;;16.95;100.00
9421;BME280;4749;51.398;5.466;2022-07-29T01:05:24;101437.44;;;16.86;100.00
9421;BME280;4749;51.398;5.466;2022-07-29T01:08:13;101431.69;;;16.49;100.00
9421;BME280;4749;51.398;5.466;2022-07-29T01:10:41;101407.94;;;16.40;100.00
9421;BME280;4749;51.398;5.466;2022-07-29T01:13:11;101397.53;;;16.23;100.00
9421;BME280;4749;51.398;5.466;2022-07-29T01:15:56;101369.41;;;16.05;100.00
9421;BME280;4749;51.398;5.466;2022-07-29T01:18:35;101352.72;;;15.99;100.00
9421;BME280;4749;51.398;5.466;2022-07-29T01:29:56;101368.41;;;16.17;100.00
9421;BME280;4749;51.398;5.466;2022-07-29T01:32:33;101384.38;;;16.11;100.00
9421;BME280;4749;51.398;5.466;2022-07-29T01:35:37;101390.38;;;16.28;100.00
9421;BME280;4749;51.398;5.466;2022-07-29T01:38:20;101401.13;;;16.16;100.00
9421;BME280;4749;51.398;5.466;2022-07-29T01:41:04;101400.16;;;16.22;100.00
9421;BME280;4749;51.398;5.466;2022-07-29T01:43:41;101394.19;;;16.04;100.00
9421;BME280;4749;51.398;5.466;2022-07-29T01:46:16;101394.31;;;15.94;100.00
9421;BME280;4749;51.398;5.466;2022-07-29T01:48:50;101376.22;;;16.28;100.00
9421;BME280;4749;51.398;5.466;2022-07-29T01:51:29;101364.56;;;16.41;100.00
9421;BME280;4749;51.398;5.466;2022-07-29T01:54:18;101362.69;;;16.48;100.00
9421;BME280;4749;51.398;5.466;2022-07-29T01:56:51;101367.31;;;16.33;100.00
9421;BME280;4749;51.398;5.466;2022-07-29T01:59:19;101368.28;;;16.28;100.00
9421;BME280;4749;51.398;5.466;2022-07-29T02:01:48;101376.19;;;16.29;100.00
9421;BME280;4749;51.398;5.466;2022-07-29T02:04:21;101369.94;;;16.37;100.00
9421;BME280;4749;51.398;5.466;2022-07-29T02:07:01;101364.47;;;16.47;100.00
9421;BME280;4749;51.398;5.466;2022-07-29T02:09:31;101366.25;;;16.48;100.00
9421;BME280;4749;51.398;5.466;2022-07-29T02:12:00;101378.63;;;16.48;100.00
9421;BME280;4749;51.398;5.466;2022-07-29T02:14:34;101379.28;;;16.64;100.00
9421;BME280;4749;51.398;5.466;2022-07-29T02:17:03;101381.94;;;16.64;100.00
9421;BME280;4749;51.398;5.466;2022-07-29T02:19:33;101376.69;;;16.60;100.00
9421;BME280;4749;51.398;5.466;2022-07-29T02:22:01;101372.31;;;16.58;100.00
9421;BME280;4749;51.398;5.466;2022-07-29T02:24:30;101369.69;;;16.53;100.00
9421;BME280;4749;51.398;5.466;2022-07-29T02:26:59;101375.09;;;16.46;100.00
9421;BME280;4749;51.398;5.466;2022-07-29T02:29:28;101371.38;;;16.60;100.00
9421;BME280;4749;51.398;5.466;2022-07-29T02:31:58;101370.53;;;16.58;100.00
9421;BME280;4749;51.398;5.466;2022-07-29T02:34:27;101373.25;;;16.52;100.00
9421;BME280;4749;51.398;5.466;2022-07-29T02:36:56;101367.09;;;16.50;100.00
9421;BME280;4749;51.398;5.466;2022-07-29T02:39:24;101365.13;;;16.66;100.00
9421;BME280;4749;51.398;5.466;2022-07-29T02:42:03;101374.94;;;16.59;100.00
9421;BME280;4749;51.398;5.466;2022-07-29T02:44:31;101374.06;;;16.59;100.00
9421;BME280;4749;51.398;5.466;2022-07-29T02:47:10;101380.41;;;16.49;100.00
9421;BME280;4749;51.398;5.466;2022-07-29T02:49:48;101379.63;;;16.39;100.00
9421;BME280;4749;51.398;5.466;2022-07-29T02:52:39;101373.41;;;16.42;100.00
9421;BME280;4749;51.398;5.466;2022-07-29T02:55:16;101376.00;;;16.45;100.00
9421;BME280;4749;51.398;5.466;2022-07-29T03:00:49;101362.66;;;16.51;100.00
9421;BME280;4749;51.398;5.466;2022-07-29T03:03:19;101363.63;;;16.45;100.00
9421;BME280;4749;51.398;5.466;2022-07-29T03:05:47;101360.16;;;16.40;100.00
9421;BME280;4749;51.398;5.466;2022-07-29T03:08:15;101362.75;;;16.45;100.00
9421;BME280;4749;51.398;5.466;2022-07-29T03:10:45;101360.94;;;16.48;100.00
9421;BME280;4749;51.398;5.466;2022-07-29T03:13:14;101374.97;;;16.55;100.00
9421;BME280;4749;51.398;5.466;2022-07-29T03:15:43;101370.63;;;16.51;100.00
9421;BME280;4749;51.398;5.466;2022-07-29T03:18:11;101380.69;;;16.26;100.00
9421;BME280;4749;51.398;5.466;2022-07-29T03:20:39;101389.75;;;16.08;100.00
9421;BME280;4749;51.398;5.466;2022-07-29T03:23:08;101386.91;;;16.22;100.00
9421;BME280;4749;51.398;5.466;2022-07-29T03:25:35;101381.41;;;16.37;100.00
9421;BME280;4749;51.398;5.466;2022-07-29T03:28:03;101379.53;;;16.45;100.00
9421;BME280;4749;51.398;5.466;2022-07-29T03:30:30;101369.88;;;16.41;100.00
9421;BME280;4749;51.398;5.466;2022-07-29T03:32:57;101370.81;;;16.36;100.00
9421;BME280;4749;51.398;5.466;2022-07-29T03:35:25;101360.25;;;16.31;100.00
9421;BME280;4749;51.398;5.466;2022-07-29T03:37:53;101356.97;;;16.12;100.00
9421;BME280;4749;51.398;5.466;2022-07-29T03:40:26;101346.34;;;16.15;100.00
9421;BME280;4749;51.398;5.466;2022-07-29T03:42:55;101347.97;;;16.22;100.00
9421;BME280;4749;51.398;5.466;2022-07-29T03:45:24;101348.00;;;16.24;100.00
9421;BME280;4749;51.398;5.466;2022-07-29T03:47:56;101349.81;;;16.19;100.00
9421;BME280;4749;51.398;5.466;2022-07-29T03:50:28;101354.19;;;16.24;100.00
9421;BME280;4749;51.398;5.466;2022-07-29T03:52:58;101355.22;;;16.11;100.00
9421;BME280;4749;51.398;5.466;2022-07-29T03:55:26;101357.66;;;16.28;100.00
9421;BME280;4749;51.398;5.466;2022-07-29T03:57:57;101359.63;;;16.12;100.00
9421;BME280;4749;51.398;5.466;2022-07-29T04:00:26;101359.72;;;16.06;100.00
9421;BME280;4749;51.398;5.466;2022-07-29T04:02:53;101351.97;;;15.86;100.00
9421;BME280;4749;51.398;5.466;2022-07-29T04:05:20;101356.44;;;15.80;100.00
9421;BME280;4749;51.398;5.466;2022-07-29T04:07:48;101359.97;;;15.80;100.00
9421;BME280;4749;51.398;5.466;2022-07-29T04:10:16;101345.84;;;15.81;100.00
9421;BME280;4749;51.398;5.466;2022-07-29T04:12:59;101347.72;;;15.70;100.00
9421;BME280;4749;51.398;5.466;2022-07-29T04:15:26;101351.13;;;15.83;100.00
9421;BME280;4749;51.398;5.466;2022-07-29T04:17:58;101360.06;;;15.74;100.00
9421;BME280;4749;51.398;5.466;2022-07-29T04:20:26;101360.91;;;15.76;100.00
9421;BME280;4749;51.398;5.466;2022-07-29T04:22:53;101367.06;;;15.81;100.00
9421;BME280;4749;51.398;5.466;2022-07-29T04:25:20;101368.81;;;15.79;100.00
9421;BME280;4749;51.398;5.466;2022-07-29T04:27:48;101367.00;;;15.86;100.00
9421;BME280;4749;51.398;5.466;2022-07-29T04:30:27;101364.31;;;15.90;100.00
9421;BME280;4749;51.398;5.466;2022-07-29T04:32:54;101369.56;;;15.93;100.00
9421;BME280;4749;51.398;5.466;2022-07-29T04:35:21;101391.09;;;15.64;100.00
9421;BME280;4749;51.398;5.466;2022-07-29T04:37:48;101389.09;;;15.86;100.00
9421;BME280;4749;51.398;5.466;2022-07-29T04:40:15;101381.00;;;15.98;100.00
9421;BME280;4749;51.398;5.466;2022-07-29T04:42:43;101386.31;;;15.98;100.00
9421;BME280;4749;51.398;5.466;2022-07-29T04:45:13;101387.19;;;15.99;100.00
9421;BME280;4749;51.398;5.466;2022-07-29T04:47:42;101397.94;;;15.85;100.00
9421;BME280;4749;51.398;5.466;2022-07-29T04:50:10;101395.22;;;15.91;100.00
9421;BME280;4749;51.398;5.466;2022-07-29T04:52:37;101393.41;;;15.95;100.00
9421;BME280;4749;51.398;5.466;2022-07-29T04:55:05;101412.03;;;15.89;100.00
9421;BME280;4749;51.398;5.466;2022-07-29T04:57:33;101412.84;;;15.98;100.00
9421;BME280;4749;51.398;5.466;2022-07-29T05:00:00;101426.09;;;15.97;100.00
9421;BME280;4749;51.398;5.466;2022-07-29T05:02:27;101424.31;;;15.97;100.00
9421;BME280;4749;51.398;5.466;2022-07-29T05:04:54;101415.44;;;16.01;100.00
9421;BME280;4749;51.398;5.466;2022-07-29T05:07:22;101415.41;;;16.03;100.00
9421;BME280;4749;51.398;5.466;2022-07-29T05:09:49;101413.63;;;16.07;100.00
9421;BME280;4749;51.398;5.466;2022-07-29T05:12:16;101405.59;;;16.11;100.00
9421;BME280;4749;51.398;5.466;2022-07-29T05:14:43;101410.22;;;15.94;100.00
9421;BME280;4749;51.398;5.466;2022-07-29T05:17:10;101415.44;;;16.01;100.00
9421;BME280;4749;51.398;5.466;2022-07-29T05:19:37;101407.59;;;15.91;100.00
9421;BME280;4749;51.398;5.466;2022-07-29T05:22:05;101409.38;;;15.90;100.00
9421;BME280;4749;51.398;5.466;2022-07-29T05:24:32;101405.75;;;15.97;100.00
9421;BME280;4749;51.398;5.466;2022-07-29T05:26:59;101420.03;;;15.84;100.00
9421;BME280;4749;51.398;5.466;2022-07-29T05:29:26;101407.69;;;15.83;100.00
9421;BME280;4749;51.398;5.466;2022-07-29T05:32:12;101404.03;;;15.93;100.00
9421;BME280;4749;51.398;5.466;2022-07-29T05:34:40;101399.53;;;16.01;100.00
9421;BME280;4749;51.398;5.466;2022-07-29T05:37:19;101401.47;;;15.86;100.00
9421;BME280;4749;51.398;5.466;2022-07-29T05:39:46;101404.03;;;15.93;100.00
9421;BME280;4749;51.398;5.466;2022-07-29T05:42:23;101404.91;;;15.94;100.00
9421;BME280;4749;51.398;5.466;2022-07-29T05:44:51;101401.34;;;15.96;100.00
9421;BME280;4749;51.398;5.466;2022-07-29T05:47:18;101408.44;;;15.94;100.00
9421;BME280;4749;51.398;5.466;2022-07-29T05:49:46;101406.75;;;15.87;100.00
9421;BME280;4749;51.398;5.466;2022-07-29T05:52:13;101416.41;;;15.93;100.00
9421;BME280;4749;51.398;5.466;2022-07-29T05:54:40;101412.78;;;16.01;100.00
9421;BME280;4749;51.398;5.466;2022-07-29T05:57:07;101422.38;;;16.13;100.00
9421;BME280;4749;51.398;5.466;2022-07-29T05:59:38;101419.66;;;16.19;100.00
9421;BME280;4749;51.398;5.466;2022-07-29T06:02:05;101424.00;;;16.26;100.00
9421;BME280;4749;51.398;5.466;2022-07-29T06:04:32;101417.56;;;16.46;100.00
9421;BME280;4749;51.398;5.466;2022-07-29T06:07:00;101415.88;;;16.42;100.00
9421;BME280;4749;51.398;5.466;2022-07-29T06:09:28;101418.44;;;16.46;100.00
9421;BME280;4749;51.398;5.466;2022-07-29T06:11:56;101410.47;;;16.48;100.00
9421;BME280;4749;51.398;5.466;2022-07-29T06:14:25;101418.63;;;16.32;100.00
9421;BME280;4749;51.398;5.466;2022-07-29T06:16:53;101413.03;;;16.54;100.00
9421;BME280;4749;51.398;5.466;2022-07-29T06:19:21;101420.09;;;16.58;100.00
9421;BME280;4749;51.398;5.466;2022-07-29T06:21:48;101415.75;;;16.51;100.00
9421;BME280;4749;51.398;5.466;2022-07-29T06:24:15;101406.13;;;16.42;100.00
9421;BME280;4749;51.398;5.466;2022-07-29T06:26:43;101412.31;;;16.43;100.00
9421;BME280;4749;51.398;5.466;2022-07-29T06:29:11;101416.88;;;16.30;100.00
9421;BME280;4749;51.398;5.466;2022-07-29T06:31:38;101423.53;;;16.66;100.00
9421;BME280;4749;51.398;5.466;2022-07-29T06:34:06;101417.22;;;16.76;100.00
9421;BME280;4749;51.398;5.466;2022-07-29T06:36:37;101420.66;;;16.81;100.00
9421;BME280;4749;51.398;5.466;2022-07-29T06:39:06;101419.78;;;16.81;100.00
9421;BME280;4749;51.398;5.466;2022-07-29T06:41:34;101416.81;;;16.36;100.00
9421;BME280;4749;51.398;5.466;2022-07-29T06:44:02;101421.19;;;16.42;100.00
9421;BME280;4749;51.398;5.466;2022-07-29T06:46:31;101412.22;;;16.50;100.00
9421;BME280;4749;51.398;5.466;2022-07-29T06:48:59;101421.06;;;16.51;100.00
9421;BME280;4749;51.398;5.466;2022-07-29T06:51:28;101417.47;;;16.56;100.00
9421;BME280;4749;51.398;5.466;2022-07-29T06:53:55;101427.94;;;16.67;100.00
9421;BME280;4749;51.398;5.466;2022-07-29T06:56:30;101431.34;;;16.78;100.00
9421;BME280;4749;51.398;5.466;2022-07-29T06:59:09;101431.38;;;16.77;100.00
9421;BME280;4749;51.398;5.466;2022-07-29T07:01:38;101428.50;;;16.92;100.00
9421;BME280;4749;51.398;5.466;2022-07-29T07:04:06;101426.72;;;16.93;100.00
9421;BME280;4749;51.398;5.466;2022-07-29T07:06:33;101442.56;;;17.00;100.00
9421;BME280;4749;51.398;5.466;2022-07-29T07:09:01;101443.22;;;17.14;100.00
9421;BME280;4749;51.398;5.466;2022-07-29T07:11:28;101446.69;;;17.20;100.00
9421;BME280;4749;51.398;5.466;2022-07-29T07:13:56;101442.03;;;17.88;100.00
9421;BME280;4749;51.398;5.466;2022-07-29T07:16:29;101439.78;;;18.14;100.00
9421;BME280;4749;51.398;5.466;2022-07-29T07:18:56;101450.38;;;18.61;100.00
9421;BME280;4749;51.398;5.466;2022-07-29T07:21:24;101446.69;;;18.69;100.00
9421;BME280;4749;51.398;5.466;2022-07-29T07:23:51;101445.63;;;18.78;100.00
9421;BME280;4749;51.398;5.466;2022-07-29T07:26:18;101443.19;;;18.67;100.00
9421;BME280;4749;51.398;5.466;2022-07-29T07:28:45;101449.94;;;18.83;100.00
9421;BME280;4749;51.398;5.466;2022-07-29T07:31:12;101447.16;;;18.88;100.00
9421;BME280;4749;51.398;5.466;2022-07-29T07:33:39;101453.81;;;19.07;100.00
9421;BME280;4749;51.398;5.466;2022-07-29T07:36:06;101451.03;;;19.13;100.00
9421;BME280;4749;51.398;5.466;2022-07-29T07:38:33;101455.41;;;19.16;100.00
9421;BME280;4749;51.398;5.466;2022-07-29T07:41:00;101459.09;;;19.48;100.00
9421;BME280;4749;51.398;5.466;2022-07-29T07:43:28;101455.75;;;20.09;100.00
9421;BME280;4749;51.398;5.466;2022-07-29T07:45:55;101458.75;;;19.97;100.00
9421;BME280;4749;51.398;5.466;2022-07-29T07:48:22;101459.41;;;19.73;100.00
9421;BME280;4749;51.398;5.466;2022-07-29T07:50:49;101459.44;;;20.05;100.00
9421;BME280;4749;51.398;5.466;2022-07-29T07:53:17;101469.47;;;19.95;100.00
9421;BME280;4749;51.398;5.466;2022-07-29T07:55:44;101459.09;;;19.83;100.00
9421;BME280;4749;51.398;5.466;2022-07-29T07:58:32;101459.63;;;19.63;100.00
9421;BME280;4749;51.398;5.466;2022-07-29T08:00:59;101460.41;;;19.68;100.00
9421;BME280;4749;51.398;5.466;2022-07-29T08:03:26;101471.41;;;19.89;100.00
9421;BME280;4749;51.398;5.466;2022-07-29T08:05:54;101466.03;;;19.90;100.00
9421;BME280;4749;51.398;5.466;2022-07-29T08:08:21;101460.56;;;19.96;100.00
9421;BME280;4749;51.398;5.466;2022-07-29T08:10:48;101458.25;;;20.15;100.00
9421;BME280;4749;51.398;5.466;2022-07-29T08:13:29;101461.09;;;20.43;100.00
9421;BME280;4749;51.398;5.466;2022-07-29T08:15:57;101453.75;;;20.51;100.00
9421;BME280;4749;51.398;5.466;2022-07-29T08:18:28;101456.47;;;20.48;100.00
9421;BME280;4749;51.398;5.466;2022-07-29T08:20:57;101458.25;;;20.79;100.00
9421;BME280;4749;51.398;5.466;2022-07-29T08:23:24;101452.91;;;20.79;100.00
9421;BME280;4749;51.398;5.466;2022-07-29T08:26:13;101457.72;;;20.35;100.00
9421;BME280;4749;51.398;5.466;2022-07-29T08:28:42;101465.69;;;20.68;100.00
9421;BME280;4749;51.398;5.466;2022-07-29T08:31:13;101463.22;;;20.62;100.00
9421;BME280;4749;51.398;5.466;2022-07-29T08:33:41;101460.03;;;21.08;100.00
9421;BME280;4749;51.398;5.466;2022-07-29T08:36:09;101471.13;;;21.24;100.00
9421;BME280;4749;51.398;5.466;2022-07-29T08:38:36;101464.56;;;21.06;100.00
9421;BME280;4749;51.398;5.466;2022-07-29T08:41:03;101470.59;;;21.13;100.00
9421;BME280;4749;51.398;5.466;2022-07-29T08:43:30;101470.22;;;21.53;100.00
9421;BME280;4749;51.398;5.466;2022-07-29T08:45:59;101478.81;;;21.36;100.00
9421;BME280;4749;51.398;5.466;2022-07-29T08:48:27;101476.75;;;21.44;100.00
9421;BME280;4749;51.398;5.466;2022-07-29T08:50:56;101471.81;;;21.58;100.00
9421;BME280;4749;51.398;5.466;2022-07-29T08:53:26;101471.16;;;21.78;100.00
9421;BME280;4749;51.398;5.466;2022-07-29T08:55:55;101473.59;;;21.84;100.00
9421;BME280;4749;51.398;5.466;2022-07-29T08:58:23;101476.03;;;21.66;100.00
9421;BME280;4749;51.398;5.466;2022-07-29T09:00:55;101478.44;;;22.00;100.00
9421;BME280;4749;51.398;5.466;2022-07-29T09:03:29;101479.56;;;22.19;100.00
9421;BME280;4749;51.398;5.466;2022-07-29T09:05:58;101482.56;;;22.35;100.00
9421;BME280;4749;51.398;5.466;2022-07-29T09:08:26;101480.56;;;21.90;100.00
9421;BME280;4749;51.398;5.466;2022-07-29T09:10:54;101477.34;;;22.32;100.00
9421;BME280;4749;51.398;5.466;2022-07-29T09:13:25;101482.22;;;22.44;100.00
9421;BME280;4749;51.398;5.466;2022-07-29T09:15:53;101478.88;;;22.39;100.00
9421;BME280;4749;51.398;5.466;2022-07-29T09:18:47;101495.69;;;22.42;100.00
9421;BME280;4749;51.398;5.466;2022-07-29T09:21:17;101487.59;;;22.44;100.00
9421;BME280;4749;51.398;5.466;2022-07-29T09:24:10;101488.19;;;22.29;100.00
9421;BME280;4749;51.398;5.466;2022-07-29T09:26:44;101492.31;;;22.62;100.00
9421;BME280;4749;51.398;5.466;2022-07-29T09:29:21;101504.94;;;22.82;100.00
9421;BME280;4749;51.398;5.466;2022-07-29T09:31:52;101496.31;;;22.74;100.00
9421;BME280;4749;51.398;5.466;2022-07-29T09:34:29;101495.06;;;22.59;100.00
9421;BME280;4749;51.398;5.466;2022-07-29T09:36:58;101491.13;;;22.46;100.00
9421;BME280;4749;51.398;5.466;2022-07-29T09:39:36;101497.91;;;22.80;100.00
9421;BME280;4749;51.398;5.466;2022-07-29T09:42:06;101494.75;;;23.15;100.00
9421;BME280;4749;51.398;5.466;2022-07-29T09:44:49;101496.66;;;22.90;100.00
9421;BME280;4749;51.398;5.466;2022-07-29T09:47:18;101492.00;;;22.70;100.00
9421;BME280;4749;51.398;5.466;2022-07-29T09:49:56;101487.66;;;23.14;100.00
9421;BME280;4749;51.398;5.466;2022-07-29T09:52:29;101489.53;;;23.12;100.00
9421;BME280;4749;51.398;5.466;2022-07-29T09:55:08;101495.44;;;23.20;100.00
9421;BME280;4749;51.398;5.466;2022-07-29T09:57:39;101485.59;;;23.21;100.00
9421;BME280;4749;51.398;5.466;2022-07-29T10:00:10;101493.53;;;23.46;100.00
9421;BME280;4749;51.398;5.466;2022-07-29T10:02:40;101489.47;;;23.36;100.00
9421;BME280;4749;51.398;5.466;2022-07-29T10:05:23;101491.31;;;23.12;100.00
9421;BME280;4749;51.398;5.466;2022-07-29T10:07:54;101495.50;;;23.19;100.00
9421;BME280;4749;51.398;5.466;2022-07-29T10:10:31;101496.91;;;23.29;100.00
9421;BME280;4749;51.398;5.466;2022-07-29T10:13:04;101502.22;;;23.30;100.00
9421;BME280;4749;51.398;5.466;2022-07-29T10:15:42;101501.03;;;23.38;100.00
9421;BME280;4749;51.398;5.466;2022-07-29T10:18:13;101507.03;;;23.66;100.00
9421;BME280;4749;51.398;5.466;2022-07-29T10:20:40;101495.13;;;23.73;100.00
9421;BME280;4749;51.398;5.466;2022-07-29T10:23:08;101497.28;;;23.85;100.00
9421;BME280;4749;51.398;5.466;2022-07-29T10:25:35;101486.91;;;23.98;100.00
9421;BME280;4749;51.398;5.466;2022-07-29T10:28:03;101483.72;;;24.29;100.00
9421;BME280;4749;51.398;5.466;2022-07-29T10:30:32;101484.44;;;24.34;100.00
9421;BME280;4749;51.398;5.466;2022-07-29T10:39:13;101481.25;;;24.65;100.00
9421;BME280;4749;51.398;5.466;2022-07-29T10:42:21;101493.19;;;24.39;100.00
9421;BME280;4749;51.398;5.466;2022-07-29T10:45:01;101479.09;;;24.53;100.00
9421;BME280;4749;51.398;5.466;2022-07-29T10:47:31;101477.25;;;24.55;100.00
9421;BME280;4749;51.398;5.466;2022-07-29T10:50:05;101474.91;;;24.66;100.00
9421;BME280;4749;51.398;5.466;2022-07-29T10:52:53;101486.78;;;24.42;100.00
9421;BME280;4749;51.398;5.466;2022-07-29T10:55:39;101487.56;;;24.64;100.00
9421;BME280;4749;51.398;5.466;2022-07-29T10:58:18;101474.25;;;24.61;100.00
9421;BME280;4749;51.398;5.466;2022-07-29T11:00:54;101478.56;;;24.65;100.00
9421;BME280;4749;51.398;5.466;2022-07-29T11:03:43;101479.34;;;25.07;100.00
9421;BME280;4749;51.398;5.466;2022-07-29T11:06:17;101472.13;;;25.26;100.00
9421;BME280;4749;51.398;5.466;2022-07-29T11:09:19;101489.00;;;25.47;100.00
9421;BME280;4749;51.398;5.466;2022-07-29T11:12:03;101476.16;;;24.97;100.00
9421;BME280;4749;51.398;5.466;2022-07-29T11:14:59;101481.94;;;25.08;100.00
9421;BME280;4749;51.398;5.466;2022-07-29T11:17:29;101479.25;;;25.08;100.00
9421;BME280;4749;51.398;5.466;2022-07-29T11:23:30;101475.84;;;25.60;100.00
9421;BME280;4749;51.398;5.466;2022-07-29T11:31:44;101486.22;;;25.67;90.70
9421;BME280;4749;51.398;5.466;2022-07-29T11:34:27;101478.88;;;25.71;88.59
9421;BME280;4749;51.398;5.466;2022-07-29T11:45:05;101465.03;;;25.78;96.21
9421;BME280;4749;51.398;5.466;2022-07-29T11:47:56;101460.31;;;25.65;99.52
9421;BME280;4749;51.398;5.466;2022-07-29T11:50:47;101472.03;;;26.00;100.00
9421;BME280;4749;51.398;5.466;2022-07-29T11:53:14;101465.97;;;25.77;100.00
9421;BME280;4749;51.398;5.466;2022-07-29T11:55:42;101473.13;;;25.60;98.88
9421;BME280;4749;51.398;5.466;2022-07-29T11:58:22;101474.78;;;26.16;91.55
9421;BME280;4749;51.398;5.466;2022-07-29T12:00:52;101474.78;;;25.98;94.85
9421;BME280;4749;51.398;5.466;2022-07-29T12:03:27;101483.41;;;26.22;82.19
9421;BME280;4749;51.398;5.466;2022-07-29T12:06:15;101485.19;;;26.41;78.99
9421;BME280;4749;51.398;5.466;2022-07-29T12:09:09;101475.31;;;25.88;82.30
9421;BME280;4749;51.398;5.466;2022-07-29T12:11:40;101465.88;;;26.14;91.67
9421;BME280;4749;51.398;5.466;2022-07-29T12:14:28;101475.78;;;26.97;84.72
9421;BME280;4749;51.398;5.466;2022-07-29T12:16:56;101482.13;;;26.80;78.99
9421;BME280;4749;51.398;5.466;2022-07-29T12:19:25;101474.59;;;26.36;85.83
9421;BME280;4749;51.398;5.466;2022-07-29T12:21:54;101478.28;;;26.00;80.00
9421;BME280;4749;51.398;5.466;2022-07-29T12:24:25;101475.94;;;26.27;77.92
9421;BME280;4749;51.398;5.466;2022-07-29T12:26:59;101483.50;;;26.38;73.71
9421;BME280;4749;51.398;5.466;2022-07-29T12:29:28;101472.81;;;26.70;76.02
9421;BME280;4749;51.398;5.466;2022-07-29T12:32:03;101469.94;;;25.88;82.10
9421;BME280;4749;51.398;5.466;2022-07-29T12:34:45;101459.72;;;26.12;84.64
9421;BME280;4749;51.398;5.466;2022-07-29T12:37:12;101470.84;;;26.56;79.32
9421;BME280;4749;51.398;5.466;2022-07-29T12:39:39;101468.50;;;26.32;74.19
9421;BME280;4749;51.398;5.466;2022-07-29T12:42:14;101474.22;;;26.44;67.96
9421;BME280;4749;51.398;5.466;2022-07-29T12:44:49;101464.81;;;26.84;74.44
9421;BME280;4749;51.398;5.466;2022-07-29T12:47:19;101464.50;;;27.37;75.90
9421;BME280;4749;51.398;5.466;2022-07-29T12:49:47;101466.44;;;27.35;80.57
9421;BME280;4749;51.398;5.466;2022-07-29T12:52:33;101466.91;;;27.73;74.08
9421;BME280;4749;51.398;5.466;2022-07-29T12:55:01;101460.31;;;27.93;71.99
9421;BME280;4749;51.398;5.466;2022-07-29T12:57:30;101462.22;;;27.61;66.43
9421;BME280;4749;51.398;5.466;2022-07-29T13:00:09;101468.31;;;27.02;61.99
9421;BME280;4749;51.398;5.466;2022-07-29T13:02:39;101463.53;;;26.91;64.14
9421;BME280;4749;51.398;5.466;2022-07-29T13:05:09;101460.25;;;27.33;65.75
9421;BME280;4749;51.398;5.466;2022-07-29T13:07:38;101456.97;;;27.74;64.99
9421;BME280;4749;51.398;5.466;2022-07-29T13:10:23;101453.34;;;27.43;65.08
9421;BME280;4749;51.398;5.466;2022-07-29T13:13:15;101464.13;;;27.75;60.27
9421;BME280;4749;51.398;5.466;2022-07-29T13:15:44;101463.72;;;27.67;60.52
9421;BME280;4749;51.398;5.466;2022-07-29T13:18:34;101467.47;;;27.94;58.31
9421;BME280;4749;51.398;5.466;2022-07-29T13:21:16;101467.41;;;28.10;56.33
9421;BME280;4749;51.398;5.466;2022-07-29T13:23:44;101455.34;;;27.71;60.65
9421;BME280;4749;51.398;5.466;2022-07-29T13:26:12;101453.88;;;27.50;61.67
9421;BME280;4749;51.398;5.466;2022-07-29T13:28:39;101458.69;;;27.29;61.13
9421;BME280;4749;51.398;5.466;2022-07-29T13:31:10;101447.94;;;26.96;65.32
9421;BME280;4749;51.398;5.466;2022-07-29T13:33:37;101448.72;;;26.82;68.24
9421;BME280;4749;51.398;5.466;2022-07-29T13:36:04;101458.19;;;26.58;63.79
9421;BME280;4749;51.398;5.466;2022-07-29T13:38:31;101459.25;;;27.03;64.14
9421;BME280;4749;51.398;5.466;2022-07-29T13:40:58;101454.78;;;27.65;62.01
9421;BME280;4749;51.398;5.466;2022-07-29T13:43:26;101457.94;;;27.73;63.01
9421;BME280;4749;51.398;5.466;2022-07-29T13:45:53;101459.81;;;27.87;60.92
9421;BME280;4749;51.398;5.466;2022-07-29T13:48:20;101448.97;;;27.57;62.55
9421;BME280;4749;51.398;5.466;2022-07-29T13:50:47;101455.94;;;27.91;59.93
9421;BME280;4749;51.398;5.466;2022-07-29T13:53:14;101448.50;;;27.34;62.48
9421;BME280;4749;51.398;5.466;2022-07-29T13:55:44;101449.81;;;27.11;64.49
9421;BME280;4749;51.398;5.466;2022-07-29T13:58:11;101450.88;;;27.09;66.23
9421;BME280;4749;51.398;5.466;2022-07-29T14:00:38;101453.75;;;26.88;65.06